TRI weather

Tri-Cities Regional TN/VA Airport
Bristol/Johnson/Kingsport, Tennessee, United States

Public forecast

Using degrees Fahrenheit for public forecast. Weather courtesy of forecast.io.

METAR (pilot weather report)

Retrieved 2019/05/26 10:53 UTC (35 minutes ago):

KTRI 261053Z 00000KT 6SM BR FEW005 SCT150 17/16 A3019 RMK AO2 SLP197 T01670156

TAF (pilot weather forecast)

Retrieved 2019/05/26 06:22 UTC (5 hours ago):

TAF KTRI 260520Z 2606/2706 00000KT P6SM SKC FM261600 25012KT P6SM SCT050 FM270000 25003KT P6SM SCT050